Search for airport 
image banner adimage banner adimage banner ad
image banner ad

19IA - Ancam Antique Airfield

Located in West Burlington, United States

ICAO - 19IA, IATA -

Data provided by Airmate  

General information

Coordinates: N40°51'25" W91°12'14"
Elevation is 690 feet MSL.
 
View others Airports in Iowa

Operational data

Special qualification required
Current time UTC:
Current local time:
Weather at : KBRL - Southeast Iowa Rgnl ( 10 km )
METAR: KBRL 181653Z AUTO 02007KT 10SM CLR 25/21 A2979 RMK AO2 SLP081 T02500211
TAF: KBRL 181451Z 1815/1912 26008KT 6SM -TSRA SCT040CB OVC100 FM181600 26011G23KT P6SM SCT250 FM182100 29006KT P6SM BKN200 PROB30 1900/1903 4SM TSRA OVC060CB FM190900 20006KT P6SM BKN090
View NOTAMs / SUP AIP / TFR affecting this airport [VIEW]
Communications frequencies: [VIEW]

Runways:

RWY identifierQFULength (ft)Width (ft)SurfaceLDA (ft)
183400100GRASS
363400100GRASS

Airport contact information

Address: West Burlington United States

Satellite view of 19IA